C65

Plymouth Municipal Airport

Plymouth, Indiana, USA
METAR KC65 210515Z AUTO 00000KT 10SM SCT018 BKN029 OVC040 21/21 A2980 RMK A01
Observed Flight Rules
Aug-21 @ 05:15 UTC (12 hours ago) Marginal Visual Flight Rules
Visibility Clouds
10 miles
  • Scattered at 1,800' AGL
  • Broken at 2,900' AGL
  • Overcast at 4,000' AGL
Temperatures Readings
Current 21°C / 70°F
Dewpoint 21°C / 70°F
Humidity 100%
Altimeter 29.8" Hg
Pressure 1009 hPa
Elevation 244
METAR KC65 210515Z AUTO 00000KT 10SM SCT018 BKN029 OVC040 21/21 A2980 RMK A01
Observed Flight Rules
Aug-21 @ 05:15 UTC
(12 hours ago)
MVFR
Clouds
  • Scattered at 1,800' AGL
  • Broken at 2,900' AGL
  • Overcast at 4,000' AGL
Temperature Dewpoint
21°C / 70°F 21°C / 70°F
Humidity Altimeter Pressure
100% 29.8" Hg 1009 hPa